sensor_id;sensor_type;location;lat;lon;timestamp;P1;durP1;ratioP1;P2;durP2;ratioP2
49412;SDS011;35493;50.276;9.372;2023-02-01T00:00:58;2.70;;;1.38;;
49412;SDS011;35493;50.276;9.372;2023-02-01T00:03:25;4.40;;;1.75;;
49412;SDS011;35493;50.276;9.372;2023-02-01T00:05:57;3.67;;;2.00;;
49412;SDS011;35493;50.276;9.372;2023-02-01T00:08:25;2.30;;;1.40;;
49412;SDS011;35493;50.276;9.372;2023-02-01T00:10:59;1.92;;;1.20;;
49412;SDS011;35493;50.276;9.372;2023-02-01T00:13:27;3.67;;;1.77;;
49412;SDS011;35493;50.276;9.372;2023-02-01T00:16:01;3.92;;;2.00;;
49412;SDS011;35493;50.276;9.372;2023-02-01T00:18:35;2.58;;;1.80;;
49412;SDS011;35493;50.276;9.372;2023-02-01T00:21:04;2.58;;;1.38;;
49412;SDS011;35493;50.276;9.372;2023-02-01T00:23:31;3.28;;;1.60;;
49412;SDS011;35493;50.276;9.372;2023-02-01T00:25:59;3.05;;;1.60;;
49412;SDS011;35493;50.276;9.372;2023-02-01T00:28:31;3.25;;;1.77;;
49412;SDS011;35493;50.276;9.372;2023-02-01T00:30:58;3.60;;;1.85;;
49412;SDS011;35493;50.276;9.372;2023-02-01T00:33:25;3.70;;;2.05;;
49412;SDS011;35493;50.276;9.372;2023-02-01T00:35:55;4.60;;;2.33;;
49412;SDS011;35493;50.276;9.372;2023-02-01T00:38:25;4.63;;;2.20;;
49412;SDS011;35493;50.276;9.372;2023-02-01T00:40:52;5.65;;;1.98;;
49412;SDS011;35493;50.276;9.372;2023-02-01T00:43:19;5.75;;;2.45;;
49412;SDS011;35493;50.276;9.372;2023-02-01T00:45:46;6.03;;;2.22;;
49412;SDS011;35493;50.276;9.372;2023-02-01T00:48:13;6.95;;;2.53;;
49412;SDS011;35493;50.276;9.372;2023-02-01T00:50:41;4.90;;;2.70;;
49412;SDS011;35493;50.276;9.372;2023-02-01T00:53:08;5.13;;;2.40;;
49412;SDS011;35493;50.276;9.372;2023-02-01T00:55:38;5.00;;;2.50;;
49412;SDS011;35493;50.276;9.372;2023-02-01T00:58:04;5.22;;;2.20;;
49412;SDS011;35493;50.276;9.372;2023-02-01T01:00:34;4.93;;;2.85;;
49412;SDS011;35493;50.276;9.372;2023-02-01T01:03:01;4.55;;;2.55;;
49412;SDS011;35493;50.276;9.372;2023-02-01T01:08:09;5.15;;;2.42;;
49412;SDS011;35493;50.276;9.372;2023-02-01T01:10:37;4.28;;;2.55;;
49412;SDS011;35493;50.276;9.372;2023-02-01T01:13:11;4.40;;;2.28;;
49412;SDS011;35493;50.276;9.372;2023-02-01T01:15:39;4.63;;;2.33;;
49412;SDS011;35493;50.276;9.372;2023-02-01T01:18:06;4.63;;;2.60;;
49412;SDS011;35493;50.276;9.372;2023-02-01T01:20:34;4.53;;;2.40;;
49412;SDS011;35493;50.276;9.372;2023-02-01T01:23:06;3.97;;;2.47;;
49412;SDS011;35493;50.276;9.372;2023-02-01T01:25:37;6.00;;;2.58;;
49412;SDS011;35493;50.276;9.372;2023-02-01T01:28:05;5.95;;;2.25;;
49412;SDS011;35493;50.276;9.372;2023-02-01T01:30:33;5.43;;;2.92;;
49412;SDS011;35493;50.276;9.372;2023-02-01T01:33:04;4.93;;;2.70;;
49412;SDS011;35493;50.276;9.372;2023-02-01T01:35:32;5.38;;;3.20;;
49412;SDS011;35493;50.276;9.372;2023-02-01T01:38:00;4.63;;;2.67;;
49412;SDS011;35493;50.276;9.372;2023-02-01T01:40:27;4.90;;;2.95;;
49412;SDS011;35493;50.276;9.372;2023-02-01T01:43:00;6.03;;;2.80;;
49412;SDS011;35493;50.276;9.372;2023-02-01T01:45:28;6.90;;;3.13;;
49412;SDS011;35493;50.276;9.372;2023-02-01T01:47:56;5.57;;;2.85;;
49412;SDS011;35493;50.276;9.372;2023-02-01T01:50:28;5.13;;;3.03;;
49412;SDS011;35493;50.276;9.372;2023-02-01T01:53:00;6.25;;;3.33;;
49412;SDS011;35493;50.276;9.372;2023-02-01T01:55:30;4.95;;;2.85;;
49412;SDS011;35493;50.276;9.372;2023-02-01T02:00:30;5.03;;;2.92;;
49412;SDS011;35493;50.276;9.372;2023-02-01T02:02:59;5.82;;;2.78;;
49412;SDS011;35493;50.276;9.372;2023-02-01T02:05:29;4.05;;;2.50;;
49412;SDS011;35493;50.276;9.372;2023-02-01T02:07:57;4.38;;;2.60;;
49412;SDS011;35493;50.276;9.372;2023-02-01T02:10:26;5.32;;;2.80;;
49412;SDS011;35493;50.276;9.372;2023-02-01T02:13:09;4.70;;;2.40;;
49412;SDS011;35493;50.276;9.372;2023-02-01T02:15:37;5.53;;;2.70;;
49412;SDS011;35493;50.276;9.372;2023-02-01T02:18:10;6.15;;;2.67;;
49412;SDS011;35493;50.276;9.372;2023-02-01T02:20:45;5.40;;;2.53;;
49412;SDS011;35493;50.276;9.372;2023-02-01T02:26:35;6.38;;;2.63;;
49412;SDS011;35493;50.276;9.372;2023-02-01T02:32:29;4.53;;;2.45;;
49412;SDS011;35493;50.276;9.372;2023-02-01T02:35:16;6.15;;;2.78;;
49412;SDS011;35493;50.276;9.372;2023-02-01T02:37:52;4.95;;;2.90;;
49412;SDS011;35493;50.276;9.372;2023-02-01T02:40:27;4.63;;;2.72;;
49412;SDS011;35493;50.276;9.372;2023-02-01T02:42:59;6.88;;;3.10;;
49412;SDS011;35493;50.276;9.372;2023-02-01T02:45:51;5.85;;;3.20;;
49412;SDS011;35493;50.276;9.372;2023-02-01T02:48:46;7.43;;;3.17;;
49412;SDS011;35493;50.276;9.372;2023-02-01T02:51:20;6.22;;;3.10;;
49412;SDS011;35493;50.276;9.372;2023-02-01T02:54:10;6.75;;;2.90;;
49412;SDS011;35493;50.276;9.372;2023-02-01T02:56:57;6.07;;;3.25;;
49412;SDS011;35493;50.276;9.372;2023-02-01T02:59:43;5.15;;;2.70;;
49412;SDS011;35493;50.276;9.372;2023-02-01T03:02:31;6.80;;;3.10;;
49412;SDS011;35493;50.276;9.372;2023-02-01T03:05:17;6.05;;;3.08;;
49412;SDS011;35493;50.276;9.372;2023-02-01T03:07:52;5.63;;;2.80;;
49412;SDS011;35493;50.276;9.372;2023-02-01T03:10:25;5.95;;;2.90;;
49412;SDS011;35493;50.276;9.372;2023-02-01T03:13:03;5.45;;;3.25;;
49412;SDS011;35493;50.276;9.372;2023-02-01T03:15:34;5.38;;;3.00;;
49412;SDS011;35493;50.276;9.372;2023-02-01T03:18:07;5.90;;;3.13;;
49412;SDS011;35493;50.276;9.372;2023-02-01T03:20:39;5.47;;;2.88;;
49412;SDS011;35493;50.276;9.372;2023-02-01T03:23:10;5.20;;;3.30;;
49412;SDS011;35493;50.276;9.372;2023-02-01T03:25:41;5.85;;;3.13;;
49412;SDS011;35493;50.276;9.372;2023-02-01T03:28:08;7.28;;;3.80;;
49412;SDS011;35493;50.276;9.372;2023-02-01T03:30:37;5.78;;;3.20;;
49412;SDS011;35493;50.276;9.372;2023-02-01T03:33:09;6.93;;;3.40;;
49412;SDS011;35493;50.276;9.372;2023-02-01T03:35:49;6.60;;;3.17;;
49412;SDS011;35493;50.276;9.372;2023-02-01T03:38:26;5.55;;;3.10;;
49412;SDS011;35493;50.276;9.372;2023-02-01T03:41:00;5.25;;;3.55;;
49412;SDS011;35493;50.276;9.372;2023-02-01T03:43:34;5.68;;;3.20;;
49412;SDS011;35493;50.276;9.372;2023-02-01T03:46:09;5.95;;;3.50;;
49412;SDS011;35493;50.276;9.372;2023-02-01T03:48:43;7.20;;;3.35;;
49412;SDS011;35493;50.276;9.372;2023-02-01T03:51:10;6.13;;;3.33;;
49412;SDS011;35493;50.276;9.372;2023-02-01T03:53:41;7.65;;;3.42;;
49412;SDS011;35493;50.276;9.372;2023-02-01T03:56:11;8.88;;;3.53;;
49412;SDS011;35493;50.276;9.372;2023-02-01T03:58:39;6.28;;;3.60;;
49412;SDS011;35493;50.276;9.372;2023-02-01T04:01:06;6.82;;;3.50;;
49412;SDS011;35493;50.276;9.372;2023-02-01T04:03:38;7.20;;;3.72;;
49412;SDS011;35493;50.276;9.372;2023-02-01T04:06:05;9.82;;;3.67;;
49412;SDS011;35493;50.276;9.372;2023-02-01T04:08:32;8.57;;;3.03;;
49412;SDS011;35493;50.276;9.372;2023-02-01T04:11:00;5.95;;;2.78;;
49412;SDS011;35493;50.276;9.372;2023-02-01T04:13:34;7.75;;;3.03;;
49412;SDS011;35493;50.276;9.372;2023-02-01T04:16:00;5.72;;;2.80;;
49412;SDS011;35493;50.276;9.372;2023-02-01T04:18:27;5.53;;;3.22;;
49412;SDS011;35493;50.276;9.372;2023-02-01T04:20:54;5.25;;;2.83;;
49412;SDS011;35493;50.276;9.372;2023-02-01T04:23:21;5.60;;;2.85;;
49412;SDS011;35493;50.276;9.372;2023-02-01T04:25:48;5.13;;;3.05;;
49412;SDS011;35493;50.276;9.372;2023-02-01T04:28:17;3.50;;;2.33;;
49412;SDS011;35493;50.276;9.372;2023-02-01T04:30:44;5.63;;;3.05;;
49412;SDS011;35493;50.276;9.372;2023-02-01T04:33:12;6.03;;;2.65;;
49412;SDS011;35493;50.276;9.372;2023-02-01T04:35:39;6.47;;;2.80;;
49412;SDS011;35493;50.276;9.372;2023-02-01T04:38:06;5.47;;;2.90;;
49412;SDS011;35493;50.276;9.372;2023-02-01T04:40:34;6.65;;;2.70;;
49412;SDS011;35493;50.276;9.372;2023-02-01T04:43:02;5.78;;;2.95;;
49412;SDS011;35493;50.276;9.372;2023-02-01T04:45:30;6.32;;;2.67;;
49412;SDS011;35493;50.276;9.372;2023-02-01T04:47:57;5.72;;;2.88;;
49412;SDS011;35493;50.276;9.372;2023-02-01T04:50:24;5.32;;;2.75;;
49412;SDS011;35493;50.276;9.372;2023-02-01T04:52:51;5.47;;;2.45;;
49412;SDS011;35493;50.276;9.372;2023-02-01T04:55:17;4.40;;;2.08;;
49412;SDS011;35493;50.276;9.372;2023-02-01T04:57:44;7.07;;;2.45;;
49412;SDS011;35493;50.276;9.372;2023-02-01T05:00:12;6.15;;;2.40;;
49412;SDS011;35493;50.276;9.372;2023-02-01T05:02:40;6.05;;;2.38;;
49412;SDS011;35493;50.276;9.372;2023-02-01T05:05:08;6.72;;;2.92;;
49412;SDS011;35493;50.276;9.372;2023-02-01T05:07:35;4.70;;;2.10;;
49412;SDS011;35493;50.276;9.372;2023-02-01T05:10:01;7.22;;;2.15;;
49412;SDS011;35493;50.276;9.372;2023-02-01T05:12:33;5.43;;;2.20;;
49412;SDS011;35493;50.276;9.372;2023-02-01T05:15:26;4.90;;;2.10;;
49412;SDS011;35493;50.276;9.372;2023-02-01T05:17:54;4.85;;;2.00;;
49412;SDS011;35493;50.276;9.372;2023-02-01T05:20:21;6.40;;;2.03;;
49412;SDS011;35493;50.276;9.372;2023-02-01T05:22:52;3.80;;;1.65;;
49412;SDS011;35493;50.276;9.372;2023-02-01T05:25:19;6.60;;;1.90;;
49412;SDS011;35493;50.276;9.372;2023-02-01T05:27:46;6.53;;;2.10;;
49412;SDS011;35493;50.276;9.372;2023-02-01T05:30:13;4.40;;;1.77;;
49412;SDS011;35493;50.276;9.372;2023-02-01T05:32:40;4.43;;;1.88;;
49412;SDS011;35493;50.276;9.372;2023-02-01T05:35:09;5.93;;;1.98;;
49412;SDS011;35493;50.276;9.372;2023-02-01T05:37:36;5.53;;;1.65;;
49412;SDS011;35493;50.276;9.372;2023-02-01T05:40:03;4.15;;;1.73;;
49412;SDS011;35493;50.276;9.372;2023-02-01T05:42:30;6.32;;;1.75;;
49412;SDS011;35493;50.276;9.372;2023-02-01T05:44:57;7.35;;;1.85;;
49412;SDS011;35493;50.276;9.372;2023-02-01T05:47:24;5.05;;;1.65;;
49412;SDS011;35493;50.276;9.372;2023-02-01T05:49:50;3.50;;;1.42;;
49412;SDS011;35493;50.276;9.372;2023-02-01T05:52:19;4.50;;;1.52;;
49412;SDS011;35493;50.276;9.372;2023-02-01T05:54:45;4.30;;;1.63;;
49412;SDS011;35493;50.276;9.372;2023-02-01T05:57:13;5.05;;;1.75;;
49412;SDS011;35493;50.276;9.372;2023-02-01T05:59:43;4.15;;;1.80;;
49412;SDS011;35493;50.276;9.372;2023-02-01T06:02:11;4.20;;;1.70;;
49412;SDS011;35493;50.276;9.372;2023-02-01T06:04:38;4.75;;;1.50;;
49412;SDS011;35493;50.276;9.372;2023-02-01T06:07:05;5.13;;;1.80;;
49412;SDS011;35493;50.276;9.372;2023-02-01T06:09:34;4.35;;;1.70;;
49412;SDS011;35493;50.276;9.372;2023-02-01T06:12:02;6.10;;;2.35;;
49412;SDS011;35493;50.276;9.372;2023-02-01T06:14:29;7.75;;;2.35;;
49412;SDS011;35493;50.276;9.372;2023-02-01T06:16:56;5.30;;;2.45;;
49412;SDS011;35493;50.276;9.372;2023-02-01T06:19:23;6.22;;;2.33;;
49412;SDS011;35493;50.276;9.372;2023-02-01T06:21:50;6.25;;;2.67;;
49412;SDS011;35493;50.276;9.372;2023-02-01T06:24:20;5.25;;;2.22;;
49412;SDS011;35493;50.276;9.372;2023-02-01T06:26:51;5.70;;;2.75;;
49412;SDS011;35493;50.276;9.372;2023-02-01T06:29:18;5.53;;;2.85;;
49412;SDS011;35493;50.276;9.372;2023-02-01T06:31:45;5.70;;;2.70;;
49412;SDS011;35493;50.276;9.372;2023-02-01T06:34:12;6.22;;;2.50;;
49412;SDS011;35493;50.276;9.372;2023-02-01T06:36:39;6.70;;;3.05;;
49412;SDS011;35493;50.276;9.372;2023-02-01T06:39:05;8.93;;;3.15;;
49412;SDS011;35493;50.276;9.372;2023-02-01T06:41:32;4.97;;;2.58;;
49412;SDS011;35493;50.276;9.372;2023-02-01T06:44:01;5.57;;;2.58;;
49412;SDS011;35493;50.276;9.372;2023-02-01T06:46:28;7.65;;;2.80;;
49412;SDS011;35493;50.276;9.372;2023-02-01T06:48:54;4.85;;;2.47;;
49412;SDS011;35493;50.276;9.372;2023-02-01T06:51:22;5.43;;;2.38;;
49412;SDS011;35493;50.276;9.372;2023-02-01T06:53:50;7.63;;;3.28;;
49412;SDS011;35493;50.276;9.372;2023-02-01T06:56:17;7.70;;;2.60;;
49412;SDS011;35493;50.276;9.372;2023-02-01T06:58:45;6.60;;;2.60;;
49412;SDS011;35493;50.276;9.372;2023-02-01T07:01:13;5.88;;;2.35;;
49412;SDS011;35493;50.276;9.372;2023-02-01T07:03:41;7.20;;;2.50;;
49412;SDS011;35493;50.276;9.372;2023-02-01T07:06:09;5.47;;;2.38;;
49412;SDS011;35493;50.276;9.372;2023-02-01T07:08:36;8.60;;;2.38;;
49412;SDS011;35493;50.276;9.372;2023-02-01T07:11:05;7.78;;;2.60;;
49412;SDS011;35493;50.276;9.372;2023-02-01T07:13:34;6.60;;;2.10;;
49412;SDS011;35493;50.276;9.372;2023-02-01T07:16:02;7.55;;;2.20;;
49412;SDS011;35493;50.276;9.372;2023-02-01T07:18:31;5.85;;;2.08;;
49412;SDS011;35493;50.276;9.372;2023-02-01T07:20:59;5.63;;;2.28;;
49412;SDS011;35493;50.276;9.372;2023-02-01T07:23:26;5.63;;;2.15;;
49412;SDS011;35493;50.276;9.372;2023-02-01T07:25:54;5.32;;;2.35;;
49412;SDS011;35493;50.276;9.372;2023-02-01T07:28:21;5.18;;;2.15;;
49412;SDS011;35493;50.276;9.372;2023-02-01T07:30:48;7.18;;;2.25;;
49412;SDS011;35493;50.276;9.372;2023-02-01T07:33:17;3.92;;;1.52;;
49412;SDS011;35493;50.276;9.372;2023-02-01T07:35:46;6.13;;;2.72;;
49412;SDS011;35493;50.276;9.372;2023-02-01T07:38:14;4.70;;;2.10;;
49412;SDS011;35493;50.276;9.372;2023-02-01T07:40:41;6.18;;;1.80;;
49412;SDS011;35493;50.276;9.372;2023-02-01T07:43:08;6.93;;;2.28;;
49412;SDS011;35493;50.276;9.372;2023-02-01T07:45:38;7.15;;;1.77;;
49412;SDS011;35493;50.276;9.372;2023-02-01T07:48:05;4.75;;;2.13;;
49412;SDS011;35493;50.276;9.372;2023-02-01T07:50:32;8.05;;;2.25;;
49412;SDS011;35493;50.276;9.372;2023-02-01T07:53:00;6.28;;;2.00;;
49412;SDS011;35493;50.276;9.372;2023-02-01T07:55:27;5.28;;;2.00;;
49412;SDS011;35493;50.276;9.372;2023-02-01T07:57:56;8.18;;;2.15;;
49412;SDS011;35493;50.276;9.372;2023-02-01T08:00:24;7.82;;;2.03;;
49412;SDS011;35493;50.276;9.372;2023-02-01T08:03:09;4.97;;;1.67;;
49412;SDS011;35493;50.276;9.372;2023-02-01T08:05:37;7.07;;;1.98;;
49412;SDS011;35493;50.276;9.372;2023-02-01T08:08:05;7.55;;;1.85;;
49412;SDS011;35493;50.276;9.372;2023-02-01T08:10:32;7.30;;;2.17;;
49412;SDS011;35493;50.276;9.372;2023-02-01T08:13:00;8.40;;;2.53;;
49412;SDS011;35493;50.276;9.372;2023-02-01T08:15:28;4.72;;;1.77;;
49412;SDS011;35493;50.276;9.372;2023-02-01T08:17:55;8.80;;;2.58;;
49412;SDS011;35493;50.276;9.372;2023-02-01T08:20:23;10.48;;;2.30;;
49412;SDS011;35493;50.276;9.372;2023-02-01T08:22:51;7.05;;;2.40;;
49412;SDS011;35493;50.276;9.372;2023-02-01T08:25:19;8.80;;;2.58;;
49412;SDS011;35493;50.276;9.372;2023-02-01T08:27:47;9.30;;;2.08;;
49412;SDS011;35493;50.276;9.372;2023-02-01T08:30:14;8.40;;;2.00;;
49412;SDS011;35493;50.276;9.372;2023-02-01T08:32:41;7.68;;;2.47;;
49412;SDS011;35493;50.276;9.372;2023-02-01T08:35:09;10.75;;;2.92;;
49412;SDS011;35493;50.276;9.372;2023-02-01T08:37:36;8.18;;;2.45;;
49412;SDS011;35493;50.276;9.372;2023-02-01T08:40:03;7.47;;;2.80;;
49412;SDS011;35493;50.276;9.372;2023-02-01T08:42:32;8.13;;;3.15;;
49412;SDS011;35493;50.276;9.372;2023-02-01T08:45:17;12.82;;;3.22;;
49412;SDS011;35493;50.276;9.372;2023-02-01T08:47:44;10.48;;;3.15;;
49412;SDS011;35493;50.276;9.372;2023-02-01T08:50:12;10.80;;;3.65;;
49412;SDS011;35493;50.276;9.372;2023-02-01T08:52:40;10.85;;;3.63;;
49412;SDS011;35493;50.276;9.372;2023-02-01T08:55:07;13.95;;;5.90;;
49412;SDS011;35493;50.276;9.372;2023-02-01T08:57:36;13.70;;;6.10;;
49412;SDS011;35493;50.276;9.372;2023-02-01T09:00:07;16.70;;;5.18;;
49412;SDS011;35493;50.276;9.372;2023-02-01T09:02:36;22.42;;;8.07;;
49412;SDS011;35493;50.276;9.372;2023-02-01T09:05:04;16.13;;;7.28;;
49412;SDS011;35493;50.276;9.372;2023-02-01T09:07:32;15.20;;;6.13;;
49412;SDS011;35493;50.276;9.372;2023-02-01T09:09:59;16.70;;;6.07;;
49412;SDS011;35493;50.276;9.372;2023-02-01T09:12:27;16.00;;;6.85;;
49412;SDS011;35493;50.276;9.372;2023-02-01T09:14:55;15.32;;;8.73;;
49412;SDS011;35493;50.276;9.372;2023-02-01T09:17:24;13.15;;;8.43;;
49412;SDS011;35493;50.276;9.372;2023-02-01T09:19:51;7.60;;;5.60;;
49412;SDS011;35493;50.276;9.372;2023-02-01T09:22:18;11.23;;;4.40;;
49412;SDS011;35493;50.276;9.372;2023-02-01T09:24:45;11.55;;;4.72;;
49412;SDS011;35493;50.276;9.372;2023-02-01T09:27:12;8.40;;;4.43;;
49412;SDS011;35493;50.276;9.372;2023-02-01T09:29:39;10.05;;;3.72;;
49412;SDS011;35493;50.276;9.372;2023-02-01T09:32:07;7.93;;;3.85;;
49412;SDS011;35493;50.276;9.372;2023-02-01T09:34:34;7.20;;;2.72;;
49412;SDS011;35493;50.276;9.372;2023-02-01T09:37:01;9.07;;;3.65;;
49412;SDS011;35493;50.276;9.372;2023-02-01T09:39:28;12.00;;;5.88;;
49412;SDS011;35493;50.276;9.372;2023-02-01T09:41:58;10.43;;;5.43;;
49412;SDS011;35493;50.276;9.372;2023-02-01T09:44:34;11.73;;;5.28;;
49412;SDS011;35493;50.276;9.372;2023-02-01T09:47:13;12.20;;;4.78;;
49412;SDS011;35493;50.276;9.372;2023-02-01T09:49:44;10.70;;;4.90;;
49412;SDS011;35493;50.276;9.372;2023-02-01T09:52:18;11.60;;;4.35;;
49412;SDS011;35493;50.276;9.372;2023-02-01T09:54:51;13.38;;;6.80;;
49412;SDS011;35493;50.276;9.372;2023-02-01T09:57:24;14.55;;;7.93;;
49412;SDS011;35493;50.276;9.372;2023-02-01T10:00:00;10.73;;;6.28;;
49412;SDS011;35493;50.276;9.372;2023-02-01T10:02:39;11.05;;;4.88;;
49412;SDS011;35493;50.276;9.372;2023-02-01T10:05:10;9.45;;;4.57;;
49412;SDS011;35493;50.276;9.372;2023-02-01T10:07:41;11.05;;;3.55;;
49412;SDS011;35493;50.276;9.372;2023-02-01T10:10:14;6.40;;;2.40;;
49412;SDS011;35493;50.276;9.372;2023-02-01T10:12:57;7.90;;;2.70;;
49412;SDS011;35493;50.276;9.372;2023-02-01T10:18:54;8.70;;;2.20;;
49412;SDS011;35493;50.276;9.372;2023-02-01T10:21:32;7.72;;;2.33;;
49412;SDS011;35493;50.276;9.372;2023-02-01T10:24:13;6.15;;;2.42;;
49412;SDS011;35493;50.276;9.372;2023-02-01T10:27:02;7.93;;;2.50;;
49412;SDS011;35493;50.276;9.372;2023-02-01T10:29:36;10.07;;;2.75;;
49412;SDS011;35493;50.276;9.372;2023-02-01T10:32:09;8.68;;;2.33;;
49412;SDS011;35493;50.276;9.372;2023-02-01T10:34:40;9.13;;;2.83;;
49412;SDS011;35493;50.276;9.372;2023-02-01T10:37:12;8.02;;;2.50;;
49412;SDS011;35493;50.276;9.372;2023-02-01T10:39:46;9.77;;;2.53;;
49412;SDS011;35493;50.276;9.372;2023-02-01T10:42:14;6.75;;;2.35;;
49412;SDS011;35493;50.276;9.372;2023-02-01T10:44:42;6.38;;;2.22;;
49412;SDS011;35493;50.276;9.372;2023-02-01T10:47:13;13.40;;;2.17;;
49412;SDS011;35493;50.276;9.372;2023-02-01T10:49:43;8.48;;;2.22;;
49412;SDS011;35493;50.276;9.372;2023-02-01T10:52:14;8.35;;;2.42;;
49412;SDS011;35493;50.276;9.372;2023-02-01T10:57:19;5.38;;;1.85;;
49412;SDS011;35493;50.276;9.372;2023-02-01T10:59:48;7.35;;;1.75;;
49412;SDS011;35493;50.276;9.372;2023-02-01T11:02:17;7.95;;;1.90;;
49412;SDS011;35493;50.276;9.372;2023-02-01T11:04:48;7.78;;;2.00;;
49412;SDS011;35493;50.276;9.372;2023-02-01T11:07:16;8.75;;;2.88;;
49412;SDS011;35493;50.276;9.372;2023-02-01T11:09:49;7.95;;;2.08;;
49412;SDS011;35493;50.276;9.372;2023-02-01T11:15:13;10.75;;;2.47;;
49412;SDS011;35493;50.276;9.372;2023-02-01T11:17:44;8.88;;;1.92;;
49412;SDS011;35493;50.276;9.372;2023-02-01T11:20:15;7.30;;;2.17;;
49412;SDS011;35493;50.276;9.372;2023-02-01T11:22:47;6.20;;;1.67;;
49412;SDS011;35493;50.276;9.372;2023-02-01T11:25:18;6.88;;;1.85;;
49412;SDS011;35493;50.276;9.372;2023-02-01T11:27:46;8.88;;;2.05;;
49412;SDS011;35493;50.276;9.372;2023-02-01T11:30:15;7.47;;;2.72;;
49412;SDS011;35493;50.276;9.372;2023-02-01T11:32:44;7.60;;;2.30;;
49412;SDS011;35493;50.276;9.372;2023-02-01T11:35:16;9.48;;;2.25;;
49412;SDS011;35493;50.276;9.372;2023-02-01T11:37:48;9.63;;;2.20;;
49412;SDS011;35493;50.276;9.372;2023-02-01T11:40:23;5.22;;;2.22;;
49412;SDS011;35493;50.276;9.372;2023-02-01T11:42:54;6.10;;;1.85;;
49412;SDS011;35493;50.276;9.372;2023-02-01T11:45:24;6.57;;;2.03;;
49412;SDS011;35493;50.276;9.372;2023-02-01T11:47:54;8.15;;;2.20;;
49412;SDS011;35493;50.276;9.372;2023-02-01T11:50:27;8.70;;;2.03;;
49412;SDS011;35493;50.276;9.372;2023-02-01T11:53:09;8.68;;;2.22;;
49412;SDS011;35493;50.276;9.372;2023-02-01T11:56:01;5.53;;;1.63;;
49412;SDS011;35493;50.276;9.372;2023-02-01T12:01:47;8.38;;;1.92;;
49412;SDS011;35493;50.276;9.372;2023-02-01T12:07:47;6.88;;;1.83;;
49412;SDS011;35493;50.276;9.372;2023-02-01T12:10:28;8.70;;;1.95;;
49412;SDS011;35493;50.276;9.372;2023-02-01T12:13:11;8.80;;;1.73;;
49412;SDS011;35493;50.276;9.372;2023-02-01T12:15:48;9.38;;;1.88;;
49412;SDS011;35493;50.276;9.372;2023-02-01T12:18:28;7.55;;;2.00;;
49412;SDS011;35493;50.276;9.372;2023-02-01T12:21:21;7.03;;;1.77;;
49412;SDS011;35493;50.276;9.372;2023-02-01T12:24:06;4.72;;;1.67;;
49412;SDS011;35493;50.276;9.372;2023-02-01T12:26:49;11.80;;;2.60;;
49412;SDS011;35493;50.276;9.372;2023-02-01T12:29:36;6.55;;;1.73;;
49412;SDS011;35493;50.276;9.372;2023-02-01T12:32:22;6.05;;;1.75;;
49412;SDS011;35493;50.276;9.372;2023-02-01T12:35:01;7.32;;;1.50;;
49412;SDS011;35493;50.276;9.372;2023-02-01T12:37:45;6.05;;;1.67;;
49412;SDS011;35493;50.276;9.372;2023-02-01T12:40:25;7.40;;;1.90;;
49412;SDS011;35493;50.276;9.372;2023-02-01T12:43:04;6.28;;;2.08;;
49412;SDS011;35493;50.276;9.372;2023-02-01T12:45:39;10.85;;;2.08;;
49412;SDS011;35493;50.276;9.372;2023-02-01T12:48:15;9.25;;;2.22;;
49412;SDS011;35493;50.276;9.372;2023-02-01T12:50:52;9.57;;;1.80;;
49412;SDS011;35493;50.276;9.372;2023-02-01T12:53:22;7.88;;;1.90;;
49412;SDS011;35493;50.276;9.372;2023-02-01T12:55:55;6.38;;;1.65;;
49412;SDS011;35493;50.276;9.372;2023-02-01T12:58:26;7.10;;;1.45;;
49412;SDS011;35493;50.276;9.372;2023-02-01T13:00:59;8.70;;;2.08;;
49412;SDS011;35493;50.276;9.372;2023-02-01T13:03:34;7.90;;;1.70;;
49412;SDS011;35493;50.276;9.372;2023-02-01T13:06:06;7.97;;;1.83;;
49412;SDS011;35493;50.276;9.372;2023-02-01T13:08:41;4.97;;;1.65;;
49412;SDS011;35493;50.276;9.372;2023-02-01T13:11:15;8.13;;;1.92;;
49412;SDS011;35493;50.276;9.372;2023-02-01T13:13:52;10.65;;;1.77;;
49412;SDS011;35493;50.276;9.372;2023-02-01T13:16:27;6.85;;;1.80;;
49412;SDS011;35493;50.276;9.372;2023-02-01T13:18:59;5.75;;;1.83;;
49412;SDS011;35493;50.276;9.372;2023-02-01T13:21:31;4.15;;;1.70;;
49412;SDS011;35493;50.276;9.372;2023-02-01T13:24:03;8.25;;;1.52;;
49412;SDS011;35493;50.276;9.372;2023-02-01T13:26:31;8.50;;;2.30;;
49412;SDS011;35493;50.276;9.372;2023-02-01T13:28:59;7.68;;;2.17;;
49412;SDS011;35493;50.276;9.372;2023-02-01T13:31:34;9.07;;;1.77;;
49412;SDS011;35493;50.276;9.372;2023-02-01T13:34:34;6.57;;;1.52;;
49412;SDS011;35493;50.276;9.372;2023-02-01T13:37:28;9.50;;;2.03;;
49412;SDS011;35493;50.276;9.372;2023-02-01T13:40:23;8.00;;;2.00;;
49412;SDS011;35493;50.276;9.372;2023-02-01T13:43:06;8.88;;;1.77;;
49412;SDS011;35493;50.276;9.372;2023-02-01T13:45:41;7.65;;;2.33;;
49412;SDS011;35493;50.276;9.372;2023-02-01T13:48:17;10.25;;;2.30;;
49412;SDS011;35493;50.276;9.372;2023-02-01T13:50:49;7.45;;;2.10;;
49412;SDS011;35493;50.276;9.372;2023-02-01T13:53:26;8.73;;;1.95;;
49412;SDS011;35493;50.276;9.372;2023-02-01T13:55:57;7.45;;;1.60;;
49412;SDS011;35493;50.276;9.372;2023-02-01T13:58:31;6.95;;;1.98;;
49412;SDS011;35493;50.276;9.372;2023-02-01T14:04:01;6.35;;;1.70;;
49412;SDS011;35493;50.276;9.372;2023-02-01T14:09:30;7.63;;;1.50;;
49412;SDS011;35493;50.276;9.372;2023-02-01T14:12:41;9.63;;;2.40;;
49412;SDS011;35493;50.276;9.372;2023-02-01T14:15:19;8.30;;;1.90;;
49412;SDS011;35493;50.276;9.372;2023-02-01T14:17:48;6.10;;;1.50;;
49412;SDS011;35493;50.276;9.372;2023-02-01T14:23:28;5.78;;;1.58;;
49412;SDS011;35493;50.276;9.372;2023-02-01T14:28:48;11.13;;;2.10;;
49412;SDS011;35493;50.276;9.372;2023-02-01T14:31:32;7.53;;;1.88;;
49412;SDS011;35493;50.276;9.372;2023-02-01T14:34:11;7.32;;;1.75;;
49412;SDS011;35493;50.276;9.372;2023-02-01T14:36:46;7.82;;;2.10;;
49412;SDS011;35493;50.276;9.372;2023-02-01T14:39:20;8.30;;;1.80;;
49412;SDS011;35493;50.276;9.372;2023-02-01T14:41:58;8.60;;;1.98;;
49412;SDS011;35493;50.276;9.372;2023-02-01T14:44:28;6.72;;;1.58;;
49412;SDS011;35493;50.276;9.372;2023-02-01T14:53:13;9.35;;;2.00;;
49412;SDS011;35493;50.276;9.372;2023-02-01T14:55:47;8.95;;;1.92;;
49412;SDS011;35493;50.276;9.372;2023-02-01T14:58:19;8.75;;;2.03;;
49412;SDS011;35493;50.276;9.372;2023-02-01T15:00:57;7.65;;;1.90;;
49412;SDS011;35493;50.276;9.372;2023-02-01T15:03:34;6.88;;;1.73;;
49412;SDS011;35493;50.276;9.372;2023-02-01T15:06:18;11.30;;;1.80;;
49412;SDS011;35493;50.276;9.372;2023-02-01T15:08:52;9.10;;;1.63;;
49412;SDS011;35493;50.276;9.372;2023-02-01T15:11:22;4.40;;;1.42;;
49412;SDS011;35493;50.276;9.372;2023-02-01T15:13:49;8.50;;;2.05;;
49412;SDS011;35493;50.276;9.372;2023-02-01T15:16:19;5.37;;;1.80;;
49412;SDS011;35493;50.276;9.372;2023-02-01T15:18:49;7.50;;;1.80;;
49412;SDS011;35493;50.276;9.372;2023-02-01T15:21:17;6.28;;;1.90;;
49412;SDS011;35493;50.276;9.372;2023-02-01T15:23:46;4.65;;;1.67;;
49412;SDS011;35493;50.276;9.372;2023-02-01T15:26:26;6.13;;;1.70;;
49412;SDS011;35493;50.276;9.372;2023-02-01T15:28:55;7.57;;;1.50;;
49412;SDS011;35493;50.276;9.372;2023-02-01T15:31:33;8.50;;;1.88;;
49412;SDS011;35493;50.276;9.372;2023-02-01T15:34:03;7.43;;;1.98;;
49412;SDS011;35493;50.276;9.372;2023-02-01T15:36:30;6.68;;;1.92;;
49412;SDS011;35493;50.276;9.372;2023-02-01T15:41:56;5.05;;;1.65;;
49412;SDS011;35493;50.276;9.372;2023-02-01T15:46:55;7.47;;;1.55;;
49412;SDS011;35493;50.276;9.372;2023-02-01T15:49:26;4.50;;;1.35;;
49412;SDS011;35493;50.276;9.372;2023-02-01T15:51:55;4.57;;;1.40;;
49412;SDS011;35493;50.276;9.372;2023-02-01T15:54:25;6.38;;;1.50;;
49412;SDS011;35493;50.276;9.372;2023-02-01T15:56:57;6.07;;;1.73;;
49412;SDS011;35493;50.276;9.372;2023-02-01T15:59:29;6.85;;;1.88;;
49412;SDS011;35493;50.276;9.372;2023-02-01T16:02:00;6.75;;;1.63;;